createdAt,value
2022-09-22T00:04:37.814Z,44.7
2022-09-22T00:09:56.612Z,45
2022-09-22T00:15:14.813Z,44.7
2022-09-22T00:20:33.553Z,44.2
2022-09-22T00:25:52.326Z,44.4
2022-09-22T00:31:10.762Z,44.8
2022-09-22T00:36:28.682Z,44
2022-09-22T00:41:47.165Z,44.3
2022-09-22T00:47:05.324Z,44.8
2022-09-22T00:52:23.791Z,45.2
2022-09-22T00:57:42.561Z,44.9
2022-09-22T01:03:03.495Z,44.9
2022-09-22T01:08:22.238Z,44.7
2022-09-22T01:13:40.451Z,44.6
2022-09-22T01:18:59.237Z,41.7
2022-09-22T01:24:17.414Z,39.2
2022-09-22T01:29:35.897Z,41
2022-09-22T01:34:54.151Z,42.6
2022-09-22T01:40:13.035Z,42
2022-09-22T01:45:31.272Z,43.4
2022-09-22T01:50:49.227Z,43.8
2022-09-22T01:56:07.974Z,43.8
2022-09-22T02:01:26.709Z,43.4
2022-09-22T02:06:45.085Z,43.9
2022-09-22T02:12:03.818Z,43.8
2022-09-22T02:17:22.313Z,43.2
2022-09-22T02:22:40.686Z,43.1
2022-09-22T02:27:58.577Z,43.2
2022-09-22T02:33:17.063Z,44
2022-09-22T02:38:35.579Z,44
2022-09-22T02:43:54.049Z,44
2022-09-22T02:49:12.826Z,43
2022-09-22T02:54:31.060Z,44
2022-09-22T02:59:49.564Z,43.9
2022-09-22T03:05:08.315Z,43.2
2022-09-22T03:10:26.810Z,43.2
2022-09-22T03:15:44.926Z,43.5
2022-09-22T03:21:03.436Z,43.3
2022-09-22T03:26:21.672Z,43.2
2022-09-22T03:31:39.860Z,43.5
2022-09-22T03:36:58.331Z,43.5
2022-09-22T03:42:16.844Z,43.7
2022-09-22T03:47:35.572Z,44.3
2022-09-22T03:52:54.054Z,43.3
2022-09-22T03:58:12.010Z,43.4
2022-09-22T04:03:30.750Z,43.4
2022-09-22T04:08:48.941Z,43.8
2022-09-22T04:14:06.915Z,43.4
2022-09-22T04:19:25.086Z,43.7
2022-09-22T04:24:43.844Z,43.4
2022-09-22T04:30:02.365Z,44.1
2022-09-22T04:35:20.542Z,44
2022-09-22T04:40:39.827Z,43.3
2022-09-22T04:45:58.339Z,44
2022-09-22T04:51:16.514Z,44
2022-09-22T04:56:35.280Z,43.4
2022-09-22T05:01:53.507Z,43.2
2022-09-22T05:07:11.987Z,44.1
2022-09-22T05:12:30.170Z,44.1
2022-09-22T05:17:48.689Z,44
2022-09-22T05:23:07.151Z,44
2022-09-22T05:28:25.626Z,43.5
2022-09-22T05:33:43.853Z,44.3
2022-09-22T05:39:02.312Z,44.2
2022-09-22T05:44:20.798Z,44.3
2022-09-22T05:49:39.583Z,44.3
2022-09-22T05:54:58.318Z,44.3
2022-09-22T06:00:16.797Z,44.2
2022-09-22T06:05:39.897Z,43.2
2022-09-22T06:10:58.357Z,43.4
2022-09-22T06:16:16.605Z,44.2
2022-09-22T06:21:35.113Z,43.5
2022-09-22T06:26:53.017Z,44.2
2022-09-22T06:32:11.488Z,43.2
2022-09-22T06:37:30.005Z,43.2
2022-09-22T06:42:48.742Z,43.8
2022-09-22T06:48:10.840Z,43.7
2022-09-22T06:53:29.341Z,43.8
2022-09-22T06:59:11.328Z,43.8
2022-09-22T07:04:29.829Z,42.8
2022-09-22T07:09:48.344Z,43.3
2022-09-22T07:15:06.523Z,42.6
2022-09-22T07:20:25.284Z,42.6
2022-09-22T07:25:43.808Z,42.8
2022-09-22T07:31:02.543Z,42.9
2022-09-22T07:36:21.037Z,42.6
2022-09-22T07:41:39.562Z,42.4
2022-09-22T07:46:58.285Z,42.8
2022-09-22T07:52:17.132Z,43
2022-09-22T07:57:35.372Z,43.2
2022-09-22T08:02:53.836Z,43
2022-09-22T08:08:12.033Z,43.1
2022-09-22T08:13:30.259Z,42.3
2022-09-22T08:18:48.460Z,43.1
2022-09-22T08:24:07.260Z,42.2
2022-09-22T08:29:25.787Z,42.8
2022-09-22T08:34:43.974Z,42.8
2022-09-22T08:40:02.864Z,42.8
2022-09-22T08:45:27.423Z,43
2022-09-22T08:50:45.606Z,42.2
2022-09-22T08:56:04.100Z,42.1
2022-09-22T09:01:22.576Z,42.2
2022-09-22T09:06:41.356Z,42.9
2022-09-22T09:11:59.828Z,42.2
2022-09-22T09:17:18.065Z,42.9
2022-09-22T09:22:36.806Z,42.2
2022-09-22T09:27:55.138Z,43
2022-09-22T09:33:13.636Z,42.5
2022-09-22T09:38:32.383Z,42.9
2022-09-22T09:43:54.086Z,42.1
2022-09-22T09:49:12.474Z,41.9
2022-09-22T09:54:30.924Z,42.7
2022-09-22T09:59:49.413Z,42.5
2022-09-22T10:05:07.658Z,41.9
2022-09-22T10:10:25.537Z,42
2022-09-22T10:15:44.227Z,42.1
2022-09-22T10:21:02.710Z,42.7
2022-09-22T10:26:21.175Z,41.9
2022-09-22T10:31:39.948Z,42.1
2022-09-22T10:36:58.490Z,42.7
2022-09-22T10:42:16.398Z,42.8
2022-09-22T10:47:34.321Z,42.1
2022-09-22T10:52:52.858Z,42.9
2022-09-22T10:58:11.594Z,43
2022-09-22T11:03:30.063Z,42.8
2022-09-22T11:08:48.666Z,43.2
2022-09-22T11:14:07.364Z,42.1
2022-09-22T11:19:25.534Z,42.8
2022-09-22T11:24:44.048Z,42
2022-09-22T11:30:10.621Z,42.8
2022-09-22T11:35:29.257Z,42.2
2022-09-22T11:40:47.794Z,42.2
2022-09-22T11:46:06.187Z,42.8
2022-09-22T11:51:24.728Z,42.7
2022-09-22T11:56:43.517Z,42.6
2022-09-22T12:02:01.679Z,41.9
2022-09-22T12:07:20.234Z,41.9
2022-09-22T12:12:38.477Z,42
2022-09-22T12:17:56.920Z,42.5
2022-09-22T12:23:15.426Z,42
2022-09-22T12:28:34.221Z,42.4
2022-09-22T12:33:52.665Z,41.9
2022-09-22T12:39:11.156Z,42.8
2022-09-22T12:44:29.933Z,42.4
2022-09-22T12:49:48.400Z,42.1
2022-09-22T12:55:06.873Z,42.7
2022-09-22T13:00:32.300Z,42.7
2022-09-22T13:05:52.001Z,42.7
2022-09-22T13:11:10.485Z,41.9
2022-09-22T13:16:29.189Z,41.9
2022-09-22T13:21:47.643Z,41.9
2022-09-22T13:27:05.578Z,42.7
2022-09-22T13:32:23.823Z,41.9
2022-09-22T13:37:41.985Z,41.9
2022-09-22T13:43:00.187Z,42
2022-09-22T13:48:18.983Z,41.9
2022-09-22T13:53:37.437Z,42.2
2022-09-22T13:58:56.209Z,42.8
2022-09-22T14:04:14.163Z,41.9
2022-09-22T14:09:32.633Z,42.6
2022-09-22T14:14:51.125Z,42
2022-09-22T14:20:09.352Z,42.8
2022-09-22T14:25:27.815Z,41.9
2022-09-22T14:30:46.578Z,41.9
2022-09-22T14:36:05.213Z,42.4
2022-09-22T14:41:23.880Z,42.1
2022-09-22T14:46:41.901Z,42.5
2022-09-22T14:52:00.382Z,42.7
2022-09-22T14:57:18.277Z,42.2
2022-09-22T15:02:36.830Z,42.8
2022-09-22T15:07:54.637Z,42
2022-09-22T15:13:13.091Z,42.9
2022-09-22T15:18:32.005Z,42
2022-09-22T15:23:50.524Z,42.2
2022-09-22T15:29:08.529Z,42.8
2022-09-22T15:34:26.815Z,42.6
2022-09-22T15:39:45.496Z,42.9
2022-09-22T15:45:04.162Z,43
2022-09-22T15:50:22.378Z,43
2022-09-22T15:55:25.001Z,42.3
2022-09-22T16:00:43.395Z,42.3
2022-09-22T16:06:01.899Z,42.4
2022-09-22T16:11:20.420Z,42.1
2022-09-22T16:16:38.644Z,42.1
2022-09-22T16:21:56.544Z,43
2022-09-22T16:27:15.234Z,42.3
2022-09-22T16:32:33.741Z,42.4
2022-09-22T16:37:52.216Z,43.1
2022-09-22T16:43:10.727Z,43.1
2022-09-22T16:48:29.186Z,42.5
2022-09-22T16:53:47.950Z,42.5
2022-09-22T16:58:50.843Z,43
2022-09-22T17:04:09.576Z,42.3
2022-09-22T17:09:28.062Z,43.2
2022-09-22T17:14:46.302Z,42.5
2022-09-22T17:20:04.766Z,43.2
2022-09-22T17:25:23.349Z,43.2
2022-09-22T17:30:41.872Z,42.2
2022-09-22T17:36:00.338Z,43.1
2022-09-22T17:41:18.813Z,42.6
2022-09-22T17:46:37.571Z,43.3
2022-09-22T17:51:56.045Z,43.3
2022-09-22T17:57:14.519Z,42.5
2022-09-22T18:02:32.951Z,42.6
2022-09-22T18:07:54.177Z,43
2022-09-22T18:13:12.943Z,43.3
2022-09-22T18:18:31.169Z,43.3
2022-09-22T18:23:49.632Z,43.2
2022-09-22T18:29:08.393Z,43.2
2022-09-22T18:34:27.288Z,42.6
2022-09-22T18:39:46.158Z,42.5
2022-09-22T18:45:04.354Z,42.9
2022-09-22T18:50:22.907Z,42.5
2022-09-22T18:55:40.787Z,42.6
2022-09-22T19:00:58.996Z,42.6
2022-09-22T19:06:16.942Z,42.7
2022-09-22T19:11:35.409Z,43.1
2022-09-22T19:16:53.604Z,43.5
2022-09-22T19:22:11.834Z,43.3
2022-09-22T19:27:30.298Z,43.4
2022-09-22T19:32:48.769Z,42.7
2022-09-22T19:38:07.820Z,42.6
2022-09-22T19:43:26.284Z,43.1
2022-09-22T19:48:44.770Z,42.5
2022-09-22T19:54:02.993Z,42.8
2022-09-22T19:59:21.186Z,42.7
2022-09-22T20:04:39.663Z,43.4
2022-09-22T20:09:58.598Z,42.6
2022-09-22T20:15:17.061Z,42.6
2022-09-22T20:20:35.275Z,42.6
2022-09-22T20:25:53.513Z,43.1
2022-09-22T20:31:11.611Z,42.9
2022-09-22T20:36:37.517Z,42.7
2022-09-22T20:41:56.277Z,43.6
2022-09-22T20:47:14.748Z,42.7
2022-09-22T20:52:33.505Z,42.6
2022-09-22T20:57:52.308Z,43.4
2022-09-22T21:03:11.053Z,42.6
2022-09-22T21:08:29.266Z,43.3
2022-09-22T21:13:47.224Z,43.3
2022-09-22T21:19:06.104Z,43.3
2022-09-22T21:24:24.386Z,43.3
2022-09-22T21:29:42.633Z,43.4
2022-09-22T21:35:00.807Z,42.9
2022-09-22T21:40:19.264Z,42.7
2022-09-22T21:45:37.560Z,43.1
2022-09-22T21:50:55.727Z,42.6
2022-09-22T21:56:14.218Z,42.8
2022-09-22T22:01:32.698Z,43.2
2022-09-22T22:06:50.976Z,43.2
2022-09-22T22:12:08.899Z,42.6
2022-09-22T22:17:27.429Z,43.2
2022-09-22T22:22:46.159Z,43.1
2022-09-22T22:28:04.644Z,43.2
2022-09-22T22:33:22.940Z,42.8
2022-09-22T22:38:41.118Z,42.7
2022-09-22T22:43:59.978Z,42.7
2022-09-22T22:49:18.797Z,43.4
2022-09-22T22:54:37.246Z,42.6
2022-09-22T22:59:55.726Z,42.7
2022-09-22T23:05:14.332Z,43.4
2022-09-22T23:10:33.106Z,42.8
2022-09-22T23:15:51.770Z,42.6
2022-09-22T23:21:10.108Z,43.1
2022-09-22T23:26:28.553Z,43.4
2022-09-22T23:31:47.314Z,42.7
2022-09-22T23:37:05.541Z,42.7
2022-09-22T23:42:24.317Z,43.3
2022-09-22T23:47:42.558Z,42.6
2022-09-22T23:53:01.057Z,42.8
2022-09-22T23:58:19.246Z,42.7
